Terminal Aerodrome Forecast
Issued by NWS Upton, NY

Current Version | Previous Version | Text Only | Print | Product List | Glossary On
Versions: 1 2 3 4 5 6 7 8 9 10 11 12 13 14 15 16 17 18 19 20 21 22 23 24 25 26 27 28 29 30 31 32
000
FTUS41 KOKX 040700 AAA
TAFBDR
TAF AMD
KBDR 040743Z 0408/0506 23006KT P6SM SCT005 OVC015 WS020/25055KT
      TEMPO 0408/0411 4SM -SHRA BR OVC008
     FM041100 26006KT 3SM BR OVC008
      TEMPO 0411/0413 2SM -RA BR
     FM041700 27006KT 5SM BR BKN015 BKN050
     FM050000 28004KT 4SM -RA BR OVC010=

USA.gov is the U.S. government's official web portal to all federal, state and local government web resources and services.